Hlavní strana
METAR-TAF:

METAR-TAF

Letiště :

Letiště Vaasa

Vaasa, Finsko

zeměpisná šířka: 63-03N, zeměpisná délka: 021-46E, výška: 4 m

Aktuální stav počasí

Zpráva byla vytvořena před 7 minutami, v 12:50 UTC
Západní vítr 11 kt, proměnlivý mezi jihozápadním a západoseverozápadním
Teplota 10°C
Vlhkost vzduchu 66%
Tlak 1014 hPa
Viditelnost 10 km a více

METAR: EFVA 251250Z AUTO 26011KT 220V300 9999 FEW025/// SCT067/// 10/04 Q1014

Čas: 15:57 (12:57 UTC)

Předpověď počasí

Zpráva byla vytvořena před 1 hodinou a 27 minutami, v 11:30 UTC
Předpověď platná od 25 v 12 UTC do 26 v 12 UTC
Západojihozápadní vítr 9 kt
Viditelnost 10 km a více
Polojasno ve výšce 3000 ft
Změna
od 26 v 03 UTC do 26 v 05 UTC
Jihojihozápadní vítr 12 kt
Viditelnost: 7000 m
Oblačno až skoro zataženo ve výšce 1300 ft
déšť

TAF: EFVA 251130Z 2512/2612 25009KT 9999 SCT030 BECMG 2603/2605 21012KT 7000 RA BKN013

Stav a předpovědi počasí z více než 4 000 letišť (zprávy METAR a TAF).

Červené a žluté tečky na mapě představují dostupné meteorologické stanice.

Když kurzor umístíte na tečku, zobrazí se název stanice.

Pak kliknutím zobrazíte stav a předpověď počasí.

Chcete-li změnit mapu, kliknutím na zelené tlačítko se znaménkem +mapu přiblížíte, kliknutím na zelené tlačítko se znaménkem – mapu oddálíte a kliknutím na zelené šipky přejdete na sousední mapy.


METAR-TAF: